createdAt,value
2017-09-28T00:00:27.282Z,0.00
2017-09-28T00:01:27.305Z,0.00
2017-09-28T00:02:27.322Z,0.00
2017-09-28T00:03:27.342Z,0.00
2017-09-28T00:04:27.360Z,0.00
2017-09-28T00:05:27.379Z,0.00
2017-09-28T00:06:27.404Z,0.00
2017-09-28T00:07:27.419Z,0.00
2017-09-28T00:08:27.438Z,0.00
2017-09-28T00:09:27.458Z,0.00
2017-09-28T00:10:27.477Z,0.00
2017-09-28T00:11:27.495Z,0.00
2017-09-28T00:12:27.514Z,0.00
2017-09-28T00:13:27.535Z,0.00
2017-09-28T00:14:27.554Z,0.00
2017-09-28T00:15:27.575Z,0.00
2017-09-28T00:16:27.593Z,0.00
2017-09-28T00:17:27.610Z,0.00
2017-09-28T00:18:27.631Z,0.00
2017-09-28T00:19:27.648Z,0.00
2017-09-28T00:20:27.670Z,0.00
2017-09-28T00:21:27.687Z,0.00
2017-09-28T00:22:27.708Z,0.00
2017-09-28T00:23:27.726Z,0.00
2017-09-28T00:24:27.743Z,0.00
2017-09-28T00:25:27.763Z,0.00
2017-09-28T00:26:27.781Z,0.00
2017-09-28T00:27:27.800Z,0.00
2017-09-28T00:28:27.823Z,0.00
2017-09-28T00:29:27.840Z,0.00
2017-09-28T00:30:27.865Z,0.00
2017-09-28T00:31:27.879Z,0.00
2017-09-28T00:32:27.899Z,0.00
2017-09-28T00:33:27.918Z,0.00
2017-09-28T00:34:27.935Z,0.00
2017-09-28T00:35:27.956Z,0.00
2017-09-28T00:36:27.977Z,0.00
2017-09-28T00:37:27.996Z,0.00
2017-09-28T00:38:28.009Z,0.00
2017-09-28T00:39:28.031Z,0.00
2017-09-28T00:40:28.050Z,0.00
2017-09-28T00:41:28.070Z,0.00
2017-09-28T00:42:28.090Z,0.00
2017-09-28T00:43:28.112Z,0.00
2017-09-28T00:44:28.139Z,0.00
2017-09-28T00:45:28.147Z,0.00
2017-09-28T00:46:28.165Z,0.00
2017-09-28T00:47:28.184Z,0.00
2017-09-28T00:48:28.204Z,0.00
2017-09-28T00:49:28.223Z,0.00
2017-09-28T00:50:28.244Z,0.00
2017-09-28T00:51:28.260Z,0.00
2017-09-28T00:52:28.280Z,0.00
2017-09-28T00:53:28.299Z,0.00
2017-09-28T00:54:28.319Z,0.00
2017-09-28T00:55:28.343Z,0.00
2017-09-28T00:56:28.358Z,0.00
2017-09-28T00:57:28.380Z,0.00
2017-09-28T00:58:28.396Z,0.00
2017-09-28T00:59:28.414Z,0.00
2017-09-28T01:00:28.433Z,0.00
2017-09-28T01:01:28.455Z,0.00
2017-09-28T01:02:28.480Z,0.00
2017-09-28T01:03:28.494Z,0.00
2017-09-28T01:04:28.508Z,0.00
2017-09-28T01:05:28.536Z,0.00
2017-09-28T01:06:28.550Z,0.00
2017-09-28T01:07:28.571Z,0.00
2017-09-28T01:08:28.586Z,0.00
2017-09-28T01:09:28.606Z,0.00
2017-09-28T01:10:28.626Z,0.00
2017-09-28T01:11:28.649Z,0.00
2017-09-28T01:12:28.664Z,0.00
2017-09-28T01:13:28.682Z,0.00
2017-09-28T01:14:28.703Z,0.00
2017-09-28T01:15:28.724Z,0.00
2017-09-28T01:16:28.743Z,0.00
2017-09-28T01:17:28.758Z,0.00
2017-09-28T01:18:28.791Z,0.00
2017-09-28T01:19:28.798Z,0.00
2017-09-28T01:20:28.821Z,0.00
2017-09-28T01:21:28.839Z,0.00
2017-09-28T01:22:28.857Z,0.00
2017-09-28T01:23:28.881Z,0.00
2017-09-28T01:24:28.899Z,0.00
2017-09-28T01:25:28.914Z,0.00
2017-09-28T01:26:28.935Z,0.00
2017-09-28T01:27:28.960Z,0.00
2017-09-28T01:28:28.972Z,0.00
2017-09-28T01:29:29.006Z,0.00
2017-09-28T01:30:29.011Z,0.00
2017-09-28T01:31:29.030Z,0.00
2017-09-28T01:32:29.049Z,0.00
2017-09-28T01:33:29.068Z,0.00
2017-09-28T01:34:29.095Z,0.00
2017-09-28T01:35:29.108Z,0.00
2017-09-28T01:36:29.126Z,0.00
2017-09-28T01:37:29.147Z,0.00
2017-09-28T01:38:29.166Z,0.00
2017-09-28T01:39:29.186Z,0.00
2017-09-28T01:40:29.206Z,0.00
2017-09-28T01:41:29.224Z,0.00
2017-09-28T01:42:29.251Z,0.00
2017-09-28T01:43:29.264Z,0.00
2017-09-28T01:44:29.280Z,0.00
2017-09-28T01:45:29.300Z,0.00
2017-09-28T01:46:29.325Z,0.00
2017-09-28T01:47:29.349Z,0.00
2017-09-28T01:48:29.360Z,0.00
2017-09-28T01:49:29.389Z,0.00
2017-09-28T01:50:29.398Z,0.00
2017-09-28T01:51:29.418Z,0.00
2017-09-28T01:52:29.436Z,0.00
2017-09-28T01:53:29.456Z,0.00
2017-09-28T01:54:29.474Z,0.00
2017-09-28T01:55:29.493Z,0.00
2017-09-28T01:56:29.517Z,0.00
2017-09-28T01:57:29.540Z,0.00
2017-09-28T01:58:29.551Z,0.00
2017-09-28T01:59:29.570Z,0.00
2017-09-28T02:00:29.590Z,0.00
2017-09-28T02:01:29.610Z,0.00
2017-09-28T02:02:29.628Z,0.00
2017-09-28T02:03:29.648Z,0.00
2017-09-28T02:04:29.666Z,0.00
2017-09-28T02:05:29.686Z,0.00
2017-09-28T02:06:29.706Z,0.00
2017-09-28T02:07:29.720Z,0.00
2017-09-28T02:08:29.742Z,0.00
2017-09-28T02:09:29.761Z,0.00
2017-09-28T02:10:29.779Z,0.00
2017-09-28T02:11:29.799Z,0.00
2017-09-28T02:12:29.825Z,0.00
2017-09-28T02:13:29.839Z,0.00
2017-09-28T02:14:29.857Z,0.00
2017-09-28T02:15:29.876Z,0.00
2017-09-28T02:16:29.895Z,0.00
2017-09-28T02:17:29.915Z,0.00
2017-09-28T02:18:29.934Z,0.00
2017-09-28T02:19:29.952Z,0.00
2017-09-28T02:20:29.970Z,0.00
2017-09-28T02:21:29.989Z,0.00
2017-09-28T02:22:30.010Z,0.00
2017-09-28T02:23:30.026Z,0.00
2017-09-28T02:24:30.050Z,0.00
2017-09-28T02:25:30.069Z,0.00
2017-09-28T02:26:30.091Z,0.00
2017-09-28T02:27:30.103Z,0.00
2017-09-28T02:28:30.123Z,0.00
2017-09-28T02:29:30.146Z,0.00
2017-09-28T02:30:30.162Z,0.00
2017-09-28T02:31:30.185Z,0.00
2017-09-28T02:32:30.199Z,0.00
2017-09-28T02:33:30.230Z,0.00
2017-09-28T02:34:30.241Z,0.00
2017-09-28T02:35:30.269Z,0.00
2017-09-28T02:36:30.282Z,0.00
2017-09-28T02:37:30.296Z,0.00
2017-09-28T02:38:30.314Z,0.00
2017-09-28T02:39:30.332Z,0.00
2017-09-28T02:40:30.353Z,0.00
2017-09-28T02:41:30.375Z,0.00
2017-09-28T02:42:30.391Z,0.00
2017-09-28T02:43:30.409Z,0.00
2017-09-28T02:44:30.428Z,0.00
2017-09-28T02:45:30.451Z,0.00
2017-09-28T02:46:30.467Z,0.00
2017-09-28T02:47:30.483Z,0.00
2017-09-28T02:48:30.508Z,0.00
2017-09-28T02:49:30.525Z,0.00
2017-09-28T02:50:30.545Z,0.00
2017-09-28T02:51:30.559Z,0.00
2017-09-28T02:52:30.578Z,0.00
2017-09-28T02:53:30.598Z,0.00
2017-09-28T02:54:30.615Z,0.00
2017-09-28T02:55:30.636Z,0.00
2017-09-28T02:56:30.659Z,0.00
2017-09-28T02:57:30.674Z,0.00
2017-09-28T02:58:30.701Z,0.00
2017-09-28T02:59:30.711Z,0.00
2017-09-28T03:00:30.732Z,0.00
2017-09-28T03:01:30.749Z,0.00
2017-09-28T03:02:30.773Z,0.00
2017-09-28T03:03:30.787Z,0.00
2017-09-28T03:04:30.806Z,0.00
2017-09-28T03:05:30.823Z,0.00
2017-09-28T03:06:30.851Z,0.00
2017-09-28T03:07:30.867Z,0.00
2017-09-28T03:08:30.881Z,0.00
2017-09-28T03:09:30.900Z,0.00
2017-09-28T03:10:30.919Z,0.00
2017-09-28T03:11:30.938Z,0.00
2017-09-28T03:12:30.958Z,0.00
2017-09-28T03:13:30.985Z,0.00
2017-09-28T03:14:30.997Z,0.00
2017-09-28T03:15:31.015Z,0.00
2017-09-28T03:16:31.035Z,0.00
2017-09-28T03:17:31.050Z,0.00
2017-09-28T03:18:31.073Z,0.00
2017-09-28T03:19:31.089Z,0.00
2017-09-28T03:20:31.108Z,0.00
2017-09-28T03:21:31.130Z,0.00
2017-09-28T03:22:31.151Z,0.00
2017-09-28T03:23:31.167Z,0.00
2017-09-28T03:24:31.185Z,0.00
2017-09-28T03:25:31.205Z,0.00
2017-09-28T03:26:31.224Z,0.00
2017-09-28T03:27:31.243Z,0.00
2017-09-28T03:28:31.262Z,0.00
2017-09-28T03:29:31.285Z,0.00
2017-09-28T03:30:31.301Z,0.00
2017-09-28T03:31:31.321Z,0.00
2017-09-28T03:32:31.349Z,0.00
2017-09-28T03:33:31.357Z,0.00
2017-09-28T03:34:31.380Z,0.00
2017-09-28T03:35:31.398Z,0.00
2017-09-28T03:36:31.415Z,0.00
2017-09-28T03:37:31.436Z,0.00
2017-09-28T03:38:31.456Z,0.00
2017-09-28T03:39:31.476Z,0.00
2017-09-28T03:40:31.492Z,0.00
2017-09-28T03:41:31.514Z,0.00
2017-09-28T03:42:31.532Z,0.00
2017-09-28T03:43:31.548Z,0.00
2017-09-28T03:44:31.569Z,0.00
2017-09-28T03:45:31.590Z,0.00
2017-09-28T03:46:31.608Z,0.00
2017-09-28T03:47:31.626Z,0.00
2017-09-28T03:48:31.647Z,0.00
2017-09-28T03:49:31.667Z,0.00
2017-09-28T03:50:31.686Z,0.00
2017-09-28T03:51:31.702Z,0.00
2017-09-28T03:52:31.723Z,0.00
2017-09-28T03:53:31.743Z,0.00
2017-09-28T03:54:31.761Z,0.00
2017-09-28T03:55:31.781Z,0.00
2017-09-28T03:56:31.802Z,0.00
2017-09-28T03:57:31.819Z,0.00
2017-09-28T03:58:31.856Z,0.00
2017-09-28T03:59:31.866Z,0.00
2017-09-28T04:00:31.881Z,0.00
2017-09-28T04:01:31.897Z,0.00
2017-09-28T04:02:31.920Z,0.00
2017-09-28T04:03:31.934Z,0.00
2017-09-28T04:04:31.958Z,0.00
2017-09-28T04:05:31.986Z,0.00
2017-09-28T04:06:31.994Z,0.00
2017-09-28T04:07:32.016Z,0.00
2017-09-28T04:08:32.033Z,0.00
2017-09-28T04:09:32.052Z,0.00
2017-09-28T04:10:32.074Z,0.00
2017-09-28T04:11:32.090Z,0.00
2017-09-28T04:12:32.112Z,0.00
2017-09-28T04:13:32.136Z,0.00
2017-09-28T04:14:32.147Z,0.00
2017-09-28T04:15:32.168Z,0.00
2017-09-28T04:16:32.193Z,0.00
2017-09-28T04:17:32.212Z,0.00
2017-09-28T04:18:32.226Z,0.00
2017-09-28T04:19:32.247Z,0.00
2017-09-28T04:20:32.265Z,0.00
2017-09-28T04:21:32.284Z,0.00
2017-09-28T04:22:32.304Z,0.00
2017-09-28T04:23:32.324Z,0.00
2017-09-28T04:24:32.347Z,0.00
2017-09-28T04:25:32.361Z,0.00
2017-09-28T04:26:32.380Z,0.00
2017-09-28T04:27:32.400Z,0.00
2017-09-28T04:28:32.419Z,0.00
2017-09-28T04:29:32.440Z,0.00
2017-09-28T04:30:32.457Z,0.00
2017-09-28T04:31:32.478Z,0.00
2017-09-28T04:32:32.496Z,0.00
2017-09-28T04:33:32.518Z,0.00
2017-09-28T04:34:32.539Z,0.00
2017-09-28T04:35:32.554Z,0.00
2017-09-28T04:36:32.573Z,0.00
2017-09-28T04:37:32.593Z,0.00
2017-09-28T04:38:32.614Z,0.00
2017-09-28T04:39:32.644Z,0.00
2017-09-28T04:40:32.651Z,0.00
2017-09-28T04:41:32.671Z,0.00
2017-09-28T04:42:32.691Z,0.00
2017-09-28T04:43:32.709Z,0.00
2017-09-28T04:44:32.729Z,0.00
2017-09-28T04:45:32.749Z,0.00
2017-09-28T04:46:32.770Z,0.00
2017-09-28T04:47:32.788Z,0.00
2017-09-28T04:48:32.811Z,0.00
2017-09-28T04:49:32.826Z,0.00
2017-09-28T04:50:32.846Z,0.00
2017-09-28T04:51:32.864Z,0.00
2017-09-28T04:52:32.883Z,0.00
2017-09-28T04:53:32.906Z,0.00
2017-09-28T04:54:32.924Z,0.00
2017-09-28T04:55:32.942Z,0.00
2017-09-28T04:56:32.959Z,0.00
2017-09-28T04:57:32.988Z,0.00
2017-09-28T04:58:33.000Z,0.00
2017-09-28T04:59:33.023Z,0.00
2017-09-28T05:00:33.054Z,0.00
2017-09-28T05:01:33.065Z,0.00
2017-09-28T05:02:33.075Z,0.00
2017-09-28T05:03:33.097Z,0.00
2017-09-28T05:04:33.117Z,0.00
2017-09-28T05:05:33.137Z,0.00
2017-09-28T05:06:33.155Z,0.00
2017-09-28T05:07:33.176Z,0.00
2017-09-28T05:08:33.195Z,0.00
2017-09-28T05:09:33.220Z,0.00
2017-09-28T05:10:33.236Z,0.00
2017-09-28T05:11:33.253Z,0.00
2017-09-28T05:12:33.271Z,0.00
2017-09-28T05:13:33.293Z,0.00
2017-09-28T05:14:33.310Z,0.00
2017-09-28T05:15:33.332Z,0.00
2017-09-28T05:16:33.349Z,0.00
2017-09-28T05:17:33.368Z,0.00
2017-09-28T05:18:33.389Z,5.63
2017-09-28T05:19:33.407Z,5.63
2017-09-28T05:20:33.428Z,5.63
2017-09-28T05:21:33.448Z,5.63
2017-09-28T05:22:33.464Z,5.63
2017-09-28T05:23:33.487Z,5.63
2017-09-28T05:24:33.502Z,5.63
2017-09-28T05:25:33.523Z,5.63
2017-09-28T05:26:33.541Z,5.63
2017-09-28T05:27:33.561Z,5.63
2017-09-28T05:28:33.581Z,11.25
2017-09-28T05:29:33.600Z,11.25
2017-09-28T05:30:33.620Z,11.25
2017-09-28T05:31:33.640Z,11.25
2017-09-28T05:32:33.660Z,11.25
2017-09-28T05:33:33.679Z,16.88
2017-09-28T05:34:33.697Z,16.88
2017-09-28T05:35:33.728Z,16.88
2017-09-28T05:36:33.735Z,16.88
2017-09-28T05:37:33.755Z,22.50
2017-09-28T05:38:33.775Z,22.50
2017-09-28T05:39:33.797Z,28.13
2017-09-28T05:40:33.814Z,28.13
2017-09-28T05:41:33.845Z,28.13
2017-09-28T05:42:33.858Z,28.13
2017-09-28T05:43:33.874Z,28.13
2017-09-28T05:44:33.890Z,28.13
2017-09-28T05:45:33.912Z,28.13
2017-09-28T05:46:33.933Z,28.13
2017-09-28T05:47:33.954Z,28.13
2017-09-28T05:48:33.970Z,28.13
2017-09-28T05:49:33.994Z,28.13
2017-09-28T05:50:34.011Z,28.13
2017-09-28T05:51:34.028Z,28.13
2017-09-28T05:52:34.060Z,28.13
2017-09-28T05:53:34.070Z,28.13
2017-09-28T05:54:34.089Z,28.13
2017-09-28T05:55:34.107Z,28.13
2017-09-28T05:56:34.126Z,28.13
2017-09-28T05:57:34.148Z,28.13
2017-09-28T05:58:34.167Z,28.13
2017-09-28T05:59:34.186Z,28.13
2017-09-28T06:00:34.205Z,28.13
2017-09-28T06:01:34.229Z,28.13
2017-09-28T06:02:34.251Z,28.13
2017-09-28T06:03:34.264Z,33.75
2017-09-28T06:04:34.284Z,33.75
2017-09-28T06:05:34.307Z,33.75
2017-09-28T06:06:34.323Z,33.75
2017-09-28T06:07:34.342Z,39.38
2017-09-28T06:08:34.369Z,39.38
2017-09-28T06:09:34.389Z,39.38
2017-09-28T06:10:34.403Z,45.00
2017-09-28T06:11:34.422Z,50.63
2017-09-28T06:12:34.443Z,50.63
2017-09-28T06:13:34.459Z,56.25
2017-09-28T06:14:34.480Z,56.25
2017-09-28T06:15:34.502Z,56.25
2017-09-28T06:16:34.527Z,56.25
2017-09-28T06:17:34.541Z,56.25
2017-09-28T06:18:34.561Z,56.25
2017-09-28T06:19:34.576Z,56.25
2017-09-28T06:20:34.608Z,56.25
2017-09-28T06:21:34.618Z,56.25
2017-09-28T06:22:34.640Z,61.88
2017-09-28T06:23:34.657Z,61.88
2017-09-28T06:24:34.681Z,56.25
2017-09-28T06:25:34.700Z,56.25
2017-09-28T06:26:34.720Z,56.25
2017-09-28T06:27:34.740Z,56.25
2017-09-28T06:28:34.755Z,50.63
2017-09-28T06:29:34.778Z,50.63
2017-09-28T06:30:34.799Z,50.63
2017-09-28T06:31:34.817Z,50.63
2017-09-28T06:32:34.836Z,50.63
2017-09-28T06:33:34.859Z,56.25
2017-09-28T06:34:34.881Z,56.25
2017-09-28T06:35:34.896Z,61.88
2017-09-28T06:36:34.916Z,67.50
2017-09-28T06:37:34.938Z,67.50
2017-09-28T06:38:34.955Z,67.50
2017-09-28T06:39:34.975Z,67.50
2017-09-28T06:40:34.997Z,73.13
2017-09-28T06:41:35.022Z,73.13
2017-09-28T06:42:35.033Z,73.13
2017-09-28T06:43:35.051Z,67.50
2017-09-28T06:44:35.084Z,67.50
2017-09-28T06:45:35.092Z,67.50
2017-09-28T06:46:35.117Z,67.50
2017-09-28T06:47:35.131Z,61.88
2017-09-28T06:48:35.151Z,61.88
2017-09-28T06:49:35.174Z,67.50
2017-09-28T06:50:35.192Z,67.50
2017-09-28T06:51:35.215Z,67.50
2017-09-28T06:52:35.238Z,67.50
2017-09-28T06:53:35.253Z,73.13
2017-09-28T06:54:35.270Z,78.75
2017-09-28T06:55:35.289Z,78.75
2017-09-28T06:56:35.307Z,84.38
2017-09-28T06:57:35.331Z,90.00
2017-09-28T06:58:35.349Z,90.00
2017-09-28T06:59:35.379Z,95.63
2017-09-28T07:00:35.394Z,95.63
2017-09-28T07:01:35.413Z,101.25
2017-09-28T07:02:35.428Z,101.25
2017-09-28T07:03:35.447Z,95.63
2017-09-28T07:04:35.470Z,90.00
2017-09-28T07:05:35.497Z,90.00
2017-09-28T07:06:35.512Z,95.63
2017-09-28T07:07:35.528Z,95.63
2017-09-28T07:08:35.549Z,95.63
2017-09-28T07:09:35.571Z,101.25
2017-09-28T07:10:35.592Z,112.50
2017-09-28T07:11:35.610Z,118.13
2017-09-28T07:12:35.630Z,123.75
2017-09-28T07:13:35.651Z,135.00
2017-09-28T07:14:35.668Z,140.63
2017-09-28T07:15:35.692Z,146.25
2017-09-28T07:16:35.710Z,146.25
2017-09-28T07:17:35.730Z,151.88
2017-09-28T07:18:35.774Z,140.63
2017-09-28T07:19:35.774Z,140.63
2017-09-28T07:20:35.796Z,140.63
2017-09-28T07:21:35.830Z,146.25
2017-09-28T07:22:35.834Z,146.25
2017-09-28T07:23:35.853Z,151.88
2017-09-28T07:24:35.872Z,151.88
2017-09-28T07:25:35.891Z,146.25
2017-09-28T07:26:35.915Z,146.25
2017-09-28T07:27:35.932Z,140.63
2017-09-28T07:28:35.959Z,140.63
2017-09-28T07:29:35.986Z,146.25
2017-09-28T07:30:36.002Z,146.25
2017-09-28T07:31:36.013Z,157.50
2017-09-28T07:32:36.034Z,163.13
2017-09-28T07:33:36.055Z,168.75
2017-09-28T07:34:36.074Z,174.38
2017-09-28T07:35:36.095Z,180.00
2017-09-28T07:36:36.115Z,185.63
2017-09-28T07:37:36.144Z,185.63
2017-09-28T07:38:36.157Z,202.50
2017-09-28T07:39:36.179Z,208.13
2017-09-28T07:40:36.213Z,213.75
2017-09-28T07:41:36.221Z,219.38
2017-09-28T07:42:36.238Z,225.00
2017-09-28T07:43:36.259Z,230.63
2017-09-28T07:44:36.284Z,230.63
2017-09-28T07:45:36.302Z,236.25
2017-09-28T07:46:36.327Z,236.25
2017-09-28T07:47:36.341Z,230.63
2017-09-28T07:48:36.369Z,225.00
2017-09-28T07:49:36.384Z,213.75
2017-09-28T07:50:36.404Z,196.88
2017-09-28T07:51:36.424Z,185.63
2017-09-28T07:52:36.446Z,180.00
2017-09-28T07:53:36.466Z,174.38
2017-09-28T07:54:36.483Z,168.75
2017-09-28T07:55:36.505Z,168.75
2017-09-28T07:56:36.526Z,174.38
2017-09-28T07:57:36.548Z,174.38
2017-09-28T07:58:36.572Z,180.00
2017-09-28T07:59:36.591Z,174.38
2017-09-28T08:00:36.612Z,174.38
2017-09-28T08:01:36.633Z,168.75
2017-09-28T08:02:36.653Z,174.38
2017-09-28T08:03:36.676Z,168.75
2017-09-28T08:04:36.695Z,168.75
2017-09-28T08:05:36.714Z,168.75
2017-09-28T08:06:36.740Z,157.50
2017-09-28T08:07:36.755Z,157.50
2017-09-28T08:08:36.775Z,157.50
2017-09-28T08:09:36.795Z,157.50
2017-09-28T08:10:36.820Z,157.50
2017-09-28T08:11:36.836Z,157.50
2017-09-28T08:12:36.859Z,151.88
2017-09-28T08:13:36.880Z,151.88
2017-09-28T08:14:36.901Z,157.50
2017-09-28T08:15:36.919Z,163.13
2017-09-28T08:16:36.940Z,163.13
2017-09-28T08:17:36.963Z,168.75
2017-09-28T08:18:36.982Z,174.38
2017-09-28T08:19:37.009Z,174.38
2017-09-28T08:20:37.024Z,174.38
2017-09-28T08:21:37.049Z,174.38
2017-09-28T08:22:37.068Z,185.63
2017-09-28T08:23:37.090Z,191.25
2017-09-28T08:24:37.105Z,185.63
2017-09-28T08:25:37.128Z,191.25
2017-09-28T08:26:37.146Z,191.25
2017-09-28T08:27:37.172Z,191.25
2017-09-28T08:28:37.191Z,185.63
2017-09-28T08:29:37.212Z,180.00
2017-09-28T08:30:37.235Z,174.38
2017-09-28T08:31:37.249Z,174.38
2017-09-28T08:32:37.279Z,174.38
2017-09-28T08:33:37.294Z,168.75
2017-09-28T08:34:37.316Z,168.75
2017-09-28T08:35:37.336Z,168.75
2017-09-28T08:36:37.358Z,168.75
2017-09-28T08:37:37.377Z,174.38
2017-09-28T08:38:37.398Z,174.38
2017-09-28T08:39:37.418Z,185.63
2017-09-28T08:40:37.446Z,191.25
2017-09-28T08:41:37.466Z,202.50
2017-09-28T08:42:37.482Z,208.13
2017-09-28T08:43:37.505Z,219.38
2017-09-28T08:44:37.525Z,230.63
2017-09-28T08:45:37.544Z,241.88
2017-09-28T08:46:37.569Z,247.50
2017-09-28T08:47:37.584Z,247.50
2017-09-28T08:48:37.607Z,253.13
2017-09-28T08:49:37.625Z,264.38
2017-09-28T08:50:37.646Z,275.63
2017-09-28T08:51:37.668Z,281.25
2017-09-28T08:52:37.690Z,292.50
2017-09-28T08:53:37.711Z,298.13
2017-09-28T08:54:37.734Z,309.38
2017-09-28T08:55:37.753Z,315.00
2017-09-28T08:56:37.775Z,315.00
2017-09-28T08:57:37.809Z,315.00
2017-09-28T08:58:37.820Z,309.38
2017-09-28T08:59:37.839Z,298.13
2017-09-28T09:00:37.862Z,286.88
2017-09-28T09:01:37.881Z,275.63
2017-09-28T09:02:37.902Z,281.25
2017-09-28T09:03:37.927Z,281.25
2017-09-28T09:04:37.946Z,286.88
2017-09-28T09:05:37.966Z,292.50
2017-09-28T09:06:37.986Z,298.13
2017-09-28T09:07:38.007Z,298.13
2017-09-28T09:08:38.027Z,303.75
2017-09-28T09:09:38.048Z,315.00
2017-09-28T09:10:38.072Z,337.50
2017-09-28T09:11:38.093Z,348.75
2017-09-28T09:12:38.122Z,360.00
2017-09-28T09:13:38.135Z,365.63
2017-09-28T09:14:38.171Z,360.00
2017-09-28T09:15:38.177Z,348.75
2017-09-28T09:16:38.196Z,337.50
2017-09-28T09:17:38.221Z,320.63
2017-09-28T09:18:38.245Z,320.63
2017-09-28T09:19:38.261Z,320.63
2017-09-28T09:20:38.283Z,331.88
2017-09-28T09:21:38.304Z,343.13
2017-09-28T09:22:38.329Z,354.38
2017-09-28T09:23:38.346Z,360.00
2017-09-28T09:24:38.368Z,371.25
2017-09-28T09:25:38.385Z,376.88
2017-09-28T09:26:38.409Z,382.50
2017-09-28T09:27:38.430Z,388.13
2017-09-28T09:28:38.449Z,393.75
2017-09-28T09:29:38.476Z,399.38
2017-09-28T09:30:38.497Z,405.00
2017-09-28T09:31:38.513Z,405.00
2017-09-28T09:32:38.545Z,405.00
2017-09-28T09:33:38.557Z,399.38
2017-09-28T09:34:38.580Z,388.13
2017-09-28T09:35:38.599Z,382.50
2017-09-28T09:36:38.623Z,382.50
2017-09-28T09:37:38.644Z,382.50
2017-09-28T09:38:38.666Z,382.50
2017-09-28T09:39:38.687Z,393.75
2017-09-28T09:40:38.709Z,393.75
2017-09-28T09:41:38.728Z,399.38
2017-09-28T09:42:38.751Z,405.00
2017-09-28T09:43:38.774Z,416.25
2017-09-28T09:44:38.793Z,427.50
2017-09-28T09:45:38.815Z,427.50
2017-09-28T09:46:38.839Z,433.13
2017-09-28T09:47:38.867Z,438.75
2017-09-28T09:48:38.879Z,438.75
2017-09-28T09:49:38.901Z,433.13
2017-09-28T09:50:38.925Z,421.88
2017-09-28T09:51:38.943Z,410.63
2017-09-28T09:52:38.968Z,405.00
2017-09-28T09:53:38.989Z,388.13
2017-09-28T09:54:39.014Z,388.13
2017-09-28T09:55:39.029Z,376.88
2017-09-28T09:56:39.052Z,376.88
2017-09-28T09:57:39.086Z,376.88
2017-09-28T09:58:39.098Z,376.88
2017-09-28T09:59:39.118Z,365.63
2017-09-28T10:00:39.141Z,365.63
2017-09-28T10:01:39.168Z,360.00
2017-09-28T10:02:39.184Z,354.38
2017-09-28T10:03:39.206Z,348.75
2017-09-28T10:04:39.229Z,354.38
2017-09-28T10:05:39.248Z,354.38
2017-09-28T10:06:39.274Z,360.00
2017-09-28T10:07:39.305Z,360.00
2017-09-28T10:08:39.320Z,365.63
2017-09-28T10:09:39.340Z,365.63
2017-09-28T10:10:39.358Z,365.63
2017-09-28T10:11:39.379Z,365.63
2017-09-28T10:12:39.403Z,365.63
2017-09-28T10:13:39.427Z,365.63
2017-09-28T10:14:39.445Z,360.00
2017-09-28T10:15:39.468Z,365.63
2017-09-28T10:16:39.493Z,371.25
2017-09-28T10:17:39.512Z,388.13
2017-09-28T10:18:39.537Z,405.00
2017-09-28T10:19:39.556Z,421.88
2017-09-28T10:20:39.577Z,438.75
2017-09-28T10:21:39.601Z,438.75
2017-09-28T10:22:39.625Z,450.00
2017-09-28T10:23:39.645Z,450.00
2017-09-28T10:24:39.668Z,455.63
2017-09-28T10:25:39.694Z,461.25
2017-09-28T10:26:39.709Z,466.88
2017-09-28T10:27:39.732Z,472.50
2017-09-28T10:28:39.755Z,478.13
2017-09-28T10:29:39.784Z,478.13
2017-09-28T10:30:39.802Z,472.50
2017-09-28T10:31:39.821Z,466.88
2017-09-28T10:32:39.849Z,466.88
2017-09-28T10:33:39.868Z,466.88
2017-09-28T10:34:39.888Z,466.88
2017-09-28T10:35:39.907Z,461.25
2017-09-28T10:36:39.932Z,455.63
2017-09-28T10:37:39.953Z,450.00
2017-09-28T10:38:39.978Z,427.50
2017-09-28T10:39:40.002Z,399.38
2017-09-28T10:40:40.022Z,376.88
2017-09-28T10:41:40.044Z,371.25
2017-09-28T10:42:40.065Z,376.88
2017-09-28T10:43:40.086Z,388.13
2017-09-28T10:44:40.110Z,399.38
2017-09-28T10:45:40.138Z,416.25
2017-09-28T10:46:40.160Z,433.13
2017-09-28T10:47:40.175Z,444.38
2017-09-28T10:48:40.198Z,450.00
2017-09-28T10:49:40.226Z,461.25
2017-09-28T10:50:40.241Z,455.63
2017-09-28T10:51:40.264Z,455.63
2017-09-28T10:52:40.295Z,455.63
2017-09-28T10:53:40.314Z,450.00
2017-09-28T10:54:40.333Z,444.38
2017-09-28T10:55:40.352Z,433.13
2017-09-28T10:56:40.380Z,427.50
2017-09-28T10:57:40.400Z,427.50
2017-09-28T10:58:40.427Z,427.50
2017-09-28T10:59:40.444Z,427.50
2017-09-28T11:00:40.474Z,427.50
2017-09-28T11:01:40.486Z,427.50
2017-09-28T11:02:40.511Z,427.50
2017-09-28T11:03:40.545Z,433.13
2017-09-28T11:04:40.555Z,433.13
2017-09-28T11:05:40.591Z,438.75
2017-09-28T11:06:40.603Z,450.00
2017-09-28T11:07:40.625Z,455.63
2017-09-28T11:08:40.646Z,461.25
2017-09-28T11:09:40.664Z,466.88
2017-09-28T11:10:40.692Z,472.50
2017-09-28T11:11:40.713Z,472.50
2017-09-28T11:12:40.735Z,478.13
2017-09-28T11:13:40.903Z,478.13
2017-09-28T11:14:40.777Z,478.13
2017-09-28T11:15:40.799Z,483.75
2017-09-28T11:16:40.825Z,483.75
2017-09-28T11:17:40.848Z,478.13
2017-09-28T11:18:40.869Z,478.13
2017-09-28T11:19:40.890Z,478.13
2017-09-28T11:20:40.911Z,472.50
2017-09-28T11:21:40.937Z,472.50
2017-09-28T11:22:40.959Z,472.50
2017-09-28T11:23:40.982Z,478.13
2017-09-28T11:24:41.008Z,478.13
2017-09-28T11:25:41.029Z,478.13
2017-09-28T11:26:41.055Z,483.75
2017-09-28T11:27:41.073Z,489.38
2017-09-28T11:28:41.097Z,489.38
2017-09-28T11:29:41.123Z,489.38
2017-09-28T11:30:41.142Z,489.38
2017-09-28T11:31:41.177Z,489.38
2017-09-28T11:32:41.202Z,483.75
2017-09-28T11:33:41.215Z,478.13
2017-09-28T11:34:41.243Z,483.75
2017-09-28T11:35:41.259Z,489.38
2017-09-28T11:36:41.286Z,506.25
2017-09-28T11:37:41.314Z,506.25
2017-09-28T11:38:41.334Z,528.75
2017-09-28T11:39:41.351Z,545.63
2017-09-28T11:40:41.377Z,562.50
2017-09-28T11:41:41.398Z,579.38
2017-09-28T11:42:41.421Z,590.63
2017-09-28T11:43:41.446Z,596.25
2017-09-28T11:44:41.471Z,601.88
2017-09-28T11:45:41.493Z,601.88
2017-09-28T11:46:41.517Z,601.88
2017-09-28T11:47:41.541Z,596.25
2017-09-28T11:48:41.564Z,590.63
2017-09-28T11:49:41.587Z,585.00
2017-09-28T11:50:41.610Z,573.75
2017-09-28T11:51:41.633Z,568.13
2017-09-28T11:52:41.661Z,556.88
2017-09-28T11:53:41.682Z,556.88
2017-09-28T11:54:41.705Z,545.63
2017-09-28T11:55:41.732Z,540.00
2017-09-28T11:56:41.753Z,540.00
2017-09-28T11:57:41.782Z,534.38
2017-09-28T11:58:41.836Z,528.75
2017-09-28T11:59:41.820Z,517.50
2017-09-28T12:00:41.846Z,506.25
2017-09-28T12:01:41.870Z,495.00
2017-09-28T12:02:41.893Z,489.38
2017-09-28T12:03:41.916Z,483.75
2017-09-28T12:04:41.941Z,489.38
2017-09-28T12:05:41.963Z,489.38
2017-09-28T12:06:41.990Z,495.00
2017-09-28T12:07:42.008Z,517.50
2017-09-28T12:08:42.036Z,523.13
2017-09-28T12:09:42.060Z,528.75
2017-09-28T12:10:42.086Z,545.63
2017-09-28T12:11:42.101Z,540.00
2017-09-28T12:12:42.128Z,562.50
2017-09-28T12:13:42.151Z,568.13
2017-09-28T12:14:42.181Z,590.63
2017-09-28T12:15:42.200Z,579.38
2017-09-28T12:16:42.219Z,573.75
2017-09-28T12:17:42.244Z,562.50
2017-09-28T12:18:42.268Z,545.63
2017-09-28T12:19:42.291Z,551.25
2017-09-28T12:20:42.315Z,545.63
2017-09-28T12:21:42.339Z,540.00
2017-09-28T12:22:42.366Z,534.38
2017-09-28T12:23:42.388Z,534.38
2017-09-28T12:24:42.411Z,528.75
2017-09-28T12:25:42.434Z,511.88
2017-09-28T12:26:42.463Z,483.75
2017-09-28T12:27:42.492Z,489.38
2017-09-28T12:28:42.508Z,478.13
2017-09-28T12:29:42.533Z,472.50
2017-09-28T12:30:42.557Z,450.00
2017-09-28T12:31:42.582Z,416.25
2017-09-28T12:32:42.602Z,399.38
2017-09-28T12:33:42.628Z,399.38
2017-09-28T12:34:42.651Z,399.38
2017-09-28T12:35:42.674Z,399.38
2017-09-28T12:36:42.699Z,410.63
2017-09-28T12:37:42.723Z,416.25
2017-09-28T12:38:42.751Z,427.50
2017-09-28T12:39:42.770Z,450.00
2017-09-28T12:40:42.796Z,461.25
2017-09-28T12:41:42.818Z,472.50
2017-09-28T12:42:42.840Z,489.38
2017-09-28T12:43:42.867Z,511.88
2017-09-28T12:44:42.891Z,545.63
2017-09-28T12:45:42.917Z,568.13
2017-09-28T12:46:42.937Z,579.38
2017-09-28T12:47:42.965Z,590.63
2017-09-28T12:48:42.983Z,590.63
2017-09-28T12:49:43.015Z,590.63
2017-09-28T12:50:43.036Z,579.38
2017-09-28T12:51:43.060Z,551.25
2017-09-28T12:52:43.080Z,528.75